createdAt,value
2023-03-02T00:00:10.834Z,5.30
2023-03-02T00:01:44.190Z,5.27
2023-03-02T00:03:18.141Z,5.25
2023-03-02T00:04:51.453Z,5.25
2023-03-02T00:06:23.340Z,5.23
2023-03-02T00:07:55.203Z,5.21
2023-03-02T00:09:28.674Z,5.22
2023-03-02T00:11:02.228Z,5.22
2023-03-02T00:12:35.215Z,5.22
2023-03-02T00:14:06.872Z,5.24
2023-03-02T00:15:38.463Z,5.26
2023-03-02T00:17:11.608Z,5.28
2023-03-02T00:18:43.211Z,5.31
2023-03-02T00:20:14.875Z,5.34
2023-03-02T00:21:47.043Z,5.36
2023-03-02T00:23:19.051Z,5.38
2023-03-02T00:24:50.598Z,5.39
2023-03-02T00:26:23.864Z,5.42
2023-03-02T00:27:57.503Z,5.45
2023-03-02T00:29:30.159Z,5.46
2023-03-02T00:31:04.473Z,5.49
2023-03-02T00:32:36.218Z,5.50
2023-03-02T00:34:08.353Z,5.53
2023-03-02T00:35:40.941Z,5.54
2023-03-02T00:37:12.688Z,5.57
2023-03-02T00:38:44.513Z,5.57
2023-03-02T00:40:16.274Z,5.59
2023-03-02T00:41:49.728Z,5.60
2023-03-02T00:43:27.213Z,5.61
2023-03-02T00:45:01.467Z,5.63
2023-03-02T00:46:33.324Z,5.62
2023-03-02T00:48:05.172Z,5.61
2023-03-02T00:49:37.381Z,5.63
2023-03-02T00:51:09.354Z,5.62
2023-03-02T00:52:41.258Z,5.62
2023-03-02T00:54:13.297Z,5.60
2023-03-02T00:55:52.501Z,5.60
2023-03-02T00:57:25.927Z,5.56
2023-03-02T00:59:04.806Z,5.52
2023-03-02T01:00:37.386Z,5.49
2023-03-02T01:02:11.821Z,5.45
2023-03-02T01:03:43.492Z,5.42
2023-03-02T01:05:16.073Z,5.40
2023-03-02T01:06:48.018Z,5.42
2023-03-02T01:08:20.303Z,5.41
2023-03-02T01:09:52.358Z,5.37
2023-03-02T01:11:24.425Z,5.36
2023-03-02T01:12:57.536Z,5.38
2023-03-02T01:14:29.377Z,5.40
2023-03-02T01:16:01.211Z,5.42
2023-03-02T01:17:32.829Z,5.43
2023-03-02T01:19:04.560Z,5.46
2023-03-02T01:20:36.128Z,5.47
2023-03-02T01:22:08.270Z,5.48
2023-03-02T01:23:40.034Z,5.50
2023-03-02T01:25:13.176Z,5.52
2023-03-02T01:26:45.198Z,5.52
2023-03-02T01:28:18.126Z,5.53
2023-03-02T01:29:50.773Z,5.53
2023-03-02T01:31:22.378Z,5.56
2023-03-02T01:32:54.076Z,5.55
2023-03-02T01:34:26.283Z,5.56
2023-03-02T01:35:58.219Z,5.55
2023-03-02T01:37:29.861Z,5.56
2023-03-02T01:39:01.561Z,5.56
2023-03-02T01:40:33.820Z,5.55
2023-03-02T01:42:05.730Z,5.55
2023-03-02T01:43:38.660Z,5.55
2023-03-02T01:45:25.127Z,5.53
2023-03-02T01:46:56.793Z,5.54
2023-03-02T01:48:30.613Z,5.53
2023-03-02T01:50:04.050Z,5.51
2023-03-02T01:51:43.498Z,5.51
2023-03-02T01:53:16.195Z,5.42
2023-03-02T01:54:49.868Z,5.30
2023-03-02T01:56:23.786Z,5.20
2023-03-02T01:57:58.748Z,5.07
2023-03-02T01:59:33.496Z,5.00
2023-03-02T02:01:06.633Z,4.95
2023-03-02T02:02:42.584Z,4.93
2023-03-02T02:04:14.821Z,4.88
2023-03-02T02:05:51.325Z,4.82
2023-03-02T02:07:23.017Z,4.75
2023-03-02T02:08:56.384Z,4.74
2023-03-02T02:10:30.112Z,4.71
2023-03-02T02:12:02.074Z,4.68
2023-03-02T02:13:33.753Z,4.62
2023-03-02T02:15:08.196Z,4.58
2023-03-02T02:16:40.481Z,4.52
2023-03-02T02:18:12.233Z,4.49
2023-03-02T02:19:49.631Z,4.44
2023-03-02T02:21:22.124Z,4.39
2023-03-02T02:23:00.555Z,4.38
2023-03-02T02:24:37.684Z,4.38
2023-03-02T02:26:22.226Z,4.34
2023-03-02T02:27:54.322Z,4.29
2023-03-02T02:29:30.324Z,4.18
2023-03-02T02:31:05.986Z,4.15
2023-03-02T02:32:39.027Z,4.12
2023-03-02T02:34:13.221Z,4.07
2023-03-02T02:35:45.811Z,4.03
2023-03-02T02:37:20.368Z,3.99
2023-03-02T02:38:54.637Z,3.97
2023-03-02T02:40:40.270Z,4.01
2023-03-02T02:42:16.794Z,4.05
2023-03-02T02:43:50.424Z,4.10
2023-03-02T02:45:23.007Z,4.09
2023-03-02T02:46:54.793Z,4.11
2023-03-02T02:48:31.023Z,4.11
2023-03-02T02:50:02.648Z,4.13
2023-03-02T02:51:34.562Z,4.13
2023-03-02T02:53:11.106Z,4.14
2023-03-02T02:54:44.477Z,4.13
2023-03-02T02:56:17.128Z,4.10
2023-03-02T02:57:51.092Z,4.08
2023-03-02T02:59:24.283Z,4.06
2023-03-02T03:00:55.963Z,4.08
2023-03-02T03:02:28.356Z,4.10
2023-03-02T03:04:02.113Z,4.12
2023-03-02T03:05:33.778Z,4.15
2023-03-02T03:07:06.168Z,4.16
2023-03-02T03:08:56.014Z,4.17
2023-03-02T03:10:44.215Z,4.21
2023-03-02T03:12:17.444Z,4.24
2023-03-02T03:13:52.139Z,4.27
2023-03-02T03:15:23.757Z,4.31
2023-03-02T03:16:55.473Z,4.32
2023-03-02T03:18:29.199Z,4.35
2023-03-02T03:20:06.499Z,4.36
2023-03-02T03:21:41.145Z,4.32
2023-03-02T03:23:12.914Z,4.23
2023-03-02T03:24:45.320Z,4.22
2023-03-02T03:26:17.124Z,4.19
2023-03-02T03:27:50.040Z,4.15
2023-03-02T03:29:25.050Z,4.12
2023-03-02T03:30:58.617Z,4.11
2023-03-02T03:32:30.342Z,4.11
2023-03-02T03:34:02.405Z,4.14
2023-03-02T03:35:38.178Z,4.19
2023-03-02T03:37:10.961Z,4.24
2023-03-02T03:38:42.753Z,4.30
2023-03-02T03:40:15.046Z,4.34
2023-03-02T03:41:48.700Z,4.36
2023-03-02T03:43:20.496Z,4.33
2023-03-02T03:44:57.934Z,4.27
2023-03-02T03:46:30.284Z,4.28
2023-03-02T03:48:02.051Z,4.30
2023-03-02T03:49:33.943Z,4.33
2023-03-02T03:51:05.800Z,4.36
2023-03-02T03:52:38.833Z,4.41
2023-03-02T03:54:21.547Z,4.36
2023-03-02T03:55:53.402Z,4.34
2023-03-02T03:57:25.237Z,4.32
2023-03-02T03:59:07.066Z,4.33
2023-03-02T04:00:45.499Z,4.25
2023-03-02T04:02:17.681Z,4.22
2023-03-02T04:03:49.255Z,4.23
2023-03-02T04:05:21.225Z,4.22
2023-03-02T04:06:56.297Z,4.24
2023-03-02T04:08:28.453Z,4.24
2023-03-02T04:10:03.706Z,4.25
2023-03-02T04:11:39.369Z,4.25
2023-03-02T04:13:11.055Z,4.23
2023-03-02T04:14:42.593Z,4.21
2023-03-02T04:16:15.529Z,4.20
2023-03-02T04:17:47.510Z,4.17
2023-03-02T04:19:21.962Z,4.17
2023-03-02T04:20:56.046Z,4.18
2023-03-02T04:22:27.873Z,4.15
2023-03-02T04:23:59.599Z,4.12
2023-03-02T04:25:32.558Z,4.11
2023-03-02T04:27:12.854Z,4.13
2023-03-02T04:28:45.031Z,4.15
2023-03-02T04:30:17.166Z,4.16
2023-03-02T04:31:50.482Z,4.16
2023-03-02T04:33:23.274Z,4.09
2023-03-02T04:34:54.969Z,4.02
2023-03-02T04:36:26.938Z,3.96
2023-03-02T04:37:59.051Z,3.86
2023-03-02T04:39:31.164Z,3.83
2023-03-02T04:41:04.083Z,3.79
2023-03-02T04:42:35.904Z,3.79
2023-03-02T04:44:07.504Z,3.75
2023-03-02T04:45:39.835Z,3.72
2023-03-02T04:47:12.860Z,3.69
2023-03-02T04:48:44.575Z,3.71
2023-03-02T04:50:16.309Z,3.69
2023-03-02T04:51:49.237Z,3.69
2023-03-02T04:53:20.846Z,3.71
2023-03-02T04:54:52.398Z,3.68
2023-03-02T04:56:23.988Z,3.62
2023-03-02T04:57:55.545Z,3.55
2023-03-02T04:59:27.788Z,3.54
2023-03-02T05:01:02.284Z,3.51
2023-03-02T05:02:35.337Z,3.52
2023-03-02T05:04:07.506Z,3.55
2023-03-02T05:05:39.178Z,3.58
2023-03-02T05:07:10.893Z,3.61
2023-03-02T05:08:42.500Z,3.64
2023-03-02T05:10:15.049Z,3.68
2023-03-02T05:11:46.858Z,3.73
2023-03-02T05:13:18.406Z,3.75
2023-03-02T05:14:49.976Z,3.77
2023-03-02T05:16:21.946Z,3.79
2023-03-02T05:17:55.210Z,3.82
2023-03-02T05:19:29.507Z,3.82
2023-03-02T05:21:01.089Z,3.81
2023-03-02T05:22:32.653Z,3.75
2023-03-02T05:24:04.385Z,3.75
2023-03-02T05:25:37.705Z,3.72
2023-03-02T05:27:09.349Z,3.72
2023-03-02T05:28:41.214Z,3.71
2023-03-02T05:30:13.729Z,3.66
2023-03-02T05:31:46.226Z,3.61
2023-03-02T05:33:21.280Z,3.62
2023-03-02T05:34:52.889Z,3.65
2023-03-02T05:36:24.481Z,3.71
2023-03-02T05:37:56.046Z,3.74
2023-03-02T05:39:28.292Z,3.81
2023-03-02T05:40:59.918Z,3.86
2023-03-02T05:42:32.103Z,3.94
2023-03-02T05:44:04.268Z,4.03
2023-03-02T05:45:37.900Z,4.10
2023-03-02T05:47:09.973Z,4.09
2023-03-02T05:48:43.008Z,4.08
2023-03-02T05:50:14.629Z,4.10
2023-03-02T05:51:46.497Z,4.15
2023-03-02T05:53:18.222Z,4.19
2023-03-02T05:54:49.927Z,4.24
2023-03-02T05:56:22.523Z,4.25
2023-03-02T05:57:54.659Z,4.24
2023-03-02T05:59:26.252Z,4.24
2023-03-02T06:00:57.924Z,4.27
2023-03-02T06:02:29.960Z,4.29
2023-03-02T06:04:03.292Z,4.31
2023-03-02T06:05:37.845Z,4.33
2023-03-02T06:07:11.180Z,4.33
2023-03-02T06:08:43.319Z,4.34
2023-03-02T06:10:15.076Z,4.36
2023-03-02T06:11:46.585Z,4.37
2023-03-02T06:13:18.123Z,4.41
2023-03-02T06:14:49.715Z,4.43
2023-03-02T06:16:21.923Z,4.44
2023-03-02T06:17:53.553Z,4.49
2023-03-02T06:19:26.828Z,4.51
2023-03-02T06:20:59.746Z,4.52
2023-03-02T06:22:31.602Z,4.47
2023-03-02T06:24:03.373Z,4.44
2023-03-02T06:25:36.931Z,4.41
2023-03-02T06:27:08.524Z,4.41
2023-03-02T06:28:52.065Z,4.42
2023-03-02T06:30:25.789Z,4.46
2023-03-02T06:31:57.474Z,4.47
2023-03-02T06:33:30.477Z,4.48
2023-03-02T06:35:05.956Z,4.50
2023-03-02T06:36:40.404Z,4.52
2023-03-02T06:38:12.002Z,4.53
2023-03-02T06:39:43.607Z,4.52
2023-03-02T06:41:17.548Z,4.54
2023-03-02T06:42:49.037Z,4.54
2023-03-02T06:44:20.738Z,4.54
2023-03-02T06:45:52.569Z,4.58
2023-03-02T06:47:24.505Z,4.57
2023-03-02T06:48:56.176Z,4.60
2023-03-02T06:50:29.927Z,4.62
2023-03-02T06:52:02.591Z,4.64
2023-03-02T06:53:34.518Z,4.65
2023-03-02T06:55:06.728Z,4.66
2023-03-02T06:56:41.032Z,4.67
2023-03-02T06:58:13.212Z,4.68
2023-03-02T06:59:44.965Z,4.67
2023-03-02T07:01:17.380Z,4.58
2023-03-02T07:02:50.095Z,4.52
2023-03-02T07:04:21.780Z,4.50
2023-03-02T07:05:54.863Z,4.51
2023-03-02T07:07:27.787Z,4.51
2023-03-02T07:08:59.493Z,4.51
2023-03-02T07:10:31.345Z,4.52
2023-03-02T07:12:03.093Z,4.51
2023-03-02T07:13:34.856Z,4.48
2023-03-02T07:15:12.020Z,4.45
2023-03-02T07:16:43.778Z,4.46
2023-03-02T07:18:15.549Z,4.49
2023-03-02T07:19:47.549Z,4.51
2023-03-02T07:21:20.541Z,4.47
2023-03-02T07:22:52.128Z,4.47
2023-03-02T07:24:23.747Z,4.49
2023-03-02T07:25:55.346Z,4.56
2023-03-02T07:27:27.836Z,4.67
2023-03-02T07:28:59.460Z,4.75
2023-03-02T07:30:33.613Z,4.77
2023-03-02T07:32:06.859Z,4.79
2023-03-02T07:33:39.172Z,4.78
2023-03-02T07:35:10.846Z,4.79
2023-03-02T07:36:44.173Z,4.78
2023-03-02T07:38:15.856Z,4.82
2023-03-02T07:39:47.651Z,4.83
2023-03-02T07:41:19.337Z,4.83
2023-03-02T07:42:50.873Z,4.86
2023-03-02T07:44:23.326Z,4.94
2023-03-02T07:45:55.221Z,4.98
2023-03-02T07:47:26.823Z,5.00
2023-03-02T07:48:59.201Z,5.07
2023-03-02T07:50:30.804Z,5.12
2023-03-02T07:52:06.156Z,5.16
2023-03-02T07:53:37.902Z,5.22
2023-03-02T07:55:09.975Z,5.28
2023-03-02T07:56:41.621Z,5.30
2023-03-02T07:58:13.240Z,5.29
2023-03-02T07:59:44.938Z,5.30
2023-03-02T08:01:16.577Z,5.27
2023-03-02T08:02:48.231Z,5.31
2023-03-02T08:04:19.815Z,5.35
2023-03-02T08:05:51.531Z,5.40
2023-03-02T08:07:24.961Z,5.43
2023-03-02T08:08:56.740Z,5.49
2023-03-02T08:10:28.420Z,5.52
2023-03-02T08:12:00.561Z,5.54
2023-03-02T08:13:33.180Z,5.61
2023-03-02T08:15:06.758Z,5.66
2023-03-02T08:16:40.395Z,5.73
2023-03-02T08:18:12.085Z,5.81
2023-03-02T08:19:43.669Z,5.83
2023-03-02T08:21:16.472Z,5.82
2023-03-02T08:22:51.752Z,5.86
2023-03-02T08:24:23.363Z,5.87
2023-03-02T08:25:55.063Z,5.90
2023-03-02T08:27:26.775Z,5.92
2023-03-02T08:28:58.520Z,5.91
2023-03-02T08:30:30.094Z,5.92
2023-03-02T08:32:02.005Z,5.93
2023-03-02T08:33:36.465Z,5.93
2023-03-02T08:35:08.821Z,5.98
2023-03-02T08:36:42.066Z,6.03
2023-03-02T08:38:16.341Z,6.09
2023-03-02T08:39:48.554Z,6.16
2023-03-02T08:41:21.241Z,6.21
2023-03-02T08:42:57.063Z,6.27
2023-03-02T08:44:28.592Z,6.38
2023-03-02T08:46:00.408Z,6.45
2023-03-02T08:47:32.612Z,6.48
2023-03-02T08:49:04.193Z,6.47
2023-03-02T08:50:35.970Z,6.52
2023-03-02T08:52:07.852Z,6.50
2023-03-02T08:53:41.971Z,6.51
2023-03-02T08:55:14.057Z,6.58
2023-03-02T08:56:45.721Z,6.62
2023-03-02T08:58:17.441Z,6.57
2023-03-02T08:59:49.620Z,6.60
2023-03-02T09:01:22.382Z,6.71
2023-03-02T09:02:54.297Z,6.79
2023-03-02T09:04:26.050Z,6.74
2023-03-02T09:05:57.900Z,6.79
2023-03-02T09:07:30.578Z,6.85
2023-03-02T09:09:04.963Z,6.95
2023-03-02T09:10:36.955Z,6.99
2023-03-02T09:12:08.530Z,7.12
2023-03-02T09:13:40.915Z,7.24
2023-03-02T09:15:12.538Z,7.34
2023-03-02T09:16:45.676Z,7.52
2023-03-02T09:18:17.259Z,7.63
2023-03-02T09:19:49.001Z,7.75
2023-03-02T09:21:21.150Z,7.83
2023-03-02T09:22:52.731Z,7.78
2023-03-02T09:24:25.703Z,7.71
2023-03-02T09:25:57.375Z,7.74
2023-03-02T09:27:29.432Z,7.81
2023-03-02T09:29:01.143Z,7.89
2023-03-02T09:30:32.876Z,7.98
2023-03-02T09:32:04.941Z,8.09
2023-03-02T09:33:36.826Z,8.14
2023-03-02T09:35:08.747Z,8.19
2023-03-02T09:36:40.336Z,8.26
2023-03-02T09:38:15.969Z,8.25
2023-03-02T09:39:49.146Z,8.26
2023-03-02T09:41:38.349Z,8.35
2023-03-02T09:43:19.521Z,8.45
2023-03-02T09:45:08.950Z,8.53
2023-03-02T09:46:44.650Z,8.46
2023-03-02T09:48:21.511Z,8.49
2023-03-02T09:50:00.109Z,8.61
2023-03-02T09:51:34.004Z,8.69
2023-03-02T09:53:23.474Z,8.63
2023-03-02T09:54:57.355Z,8.64
2023-03-02T09:56:32.192Z,8.67
2023-03-02T09:58:05.882Z,8.68
2023-03-02T09:59:42.744Z,8.69
2023-03-02T10:01:17.702Z,8.71
2023-03-02T10:02:50.690Z,8.69
2023-03-02T10:04:24.261Z,8.69
2023-03-02T10:05:56.210Z,8.73
2023-03-02T10:07:29.090Z,8.81
2023-03-02T10:09:03.552Z,8.93
2023-03-02T10:10:40.153Z,8.99
2023-03-02T10:12:23.333Z,8.99
2023-03-02T10:13:58.513Z,8.97
2023-03-02T10:15:37.441Z,8.94
2023-03-02T10:17:22.936Z,8.97
2023-03-02T10:19:02.754Z,8.94
2023-03-02T10:20:37.964Z,8.97
2023-03-02T10:22:13.161Z,9.05
2023-03-02T10:23:46.154Z,9.05
2023-03-02T10:25:23.454Z,9.02
2023-03-02T10:26:58.697Z,9.04
2023-03-02T10:28:32.689Z,9.05
2023-03-02T10:30:08.013Z,9.07
2023-03-02T10:31:40.969Z,9.11
2023-03-02T10:33:15.107Z,9.13
2023-03-02T10:34:48.102Z,9.17
2023-03-02T10:36:23.397Z,9.20
2023-03-02T10:37:57.442Z,9.19
2023-03-02T10:39:29.229Z,9.16
2023-03-02T10:41:02.274Z,9.21
2023-03-02T10:42:37.430Z,9.29
2023-03-02T10:44:15.059Z,9.29
2023-03-02T10:45:57.801Z,9.28
2023-03-02T10:47:30.034Z,9.38
2023-03-02T10:49:01.721Z,9.52
2023-03-02T10:50:33.452Z,9.54
2023-03-02T10:52:06.402Z,9.57
2023-03-02T10:53:38.061Z,9.50
2023-03-02T10:55:13.504Z,9.45
2023-03-02T10:56:49.686Z,9.45
2023-03-02T10:58:25.865Z,9.47
2023-03-02T10:59:59.903Z,9.56
2023-03-02T11:01:31.597Z,9.63
2023-03-02T11:03:04.911Z,9.64
2023-03-02T11:04:36.689Z,9.64
2023-03-02T11:06:16.713Z,9.74
2023-03-02T11:07:55.102Z,9.67
2023-03-02T11:09:28.020Z,9.67
2023-03-02T11:11:01.447Z,9.72
2023-03-02T11:12:36.274Z,9.82
2023-03-02T11:14:14.033Z,9.86
2023-03-02T11:15:47.223Z,9.79
2023-03-02T11:17:29.838Z,9.81
2023-03-02T11:19:03.449Z,9.78
2023-03-02T11:20:38.518Z,9.80
2023-03-02T11:22:16.738Z,9.85
2023-03-02T11:23:54.431Z,9.82
2023-03-02T11:25:29.421Z,9.92
2023-03-02T11:27:03.479Z,9.97
2023-03-02T11:28:39.362Z,10.07
2023-03-02T11:30:15.918Z,10.14
2023-03-02T11:31:49.911Z,10.14
2023-03-02T11:33:24.677Z,10.16
2023-03-02T11:34:58.049Z,10.23
2023-03-02T11:36:35.770Z,10.23
2023-03-02T11:38:13.630Z,10.33
2023-03-02T11:39:56.932Z,10.42
2023-03-02T11:41:30.015Z,10.42
2023-03-02T11:43:04.927Z,10.45
2023-03-02T11:44:37.976Z,10.50
2023-03-02T11:46:22.278Z,10.46
2023-03-02T11:48:02.565Z,10.43
2023-03-02T11:49:37.549Z,10.48
2023-03-02T11:51:13.098Z,10.46
2023-03-02T11:52:46.741Z,10.42
2023-03-02T11:54:24.328Z,10.38
2023-03-02T11:55:56.435Z,10.33
2023-03-02T11:57:29.748Z,10.30
2023-03-02T11:59:05.207Z,10.33
2023-03-02T12:00:38.126Z,10.41
2023-03-02T12:02:14.154Z,10.50
2023-03-02T12:03:46.581Z,10.53
2023-03-02T12:05:25.187Z,10.64
2023-03-02T12:06:59.777Z,10.59
2023-03-02T12:08:33.886Z,10.49
2023-03-02T12:10:07.028Z,10.46
2023-03-02T12:11:40.608Z,10.53
2023-03-02T12:13:18.225Z,10.48
2023-03-02T12:14:49.829Z,10.44
2023-03-02T12:16:23.137Z,10.45
2023-03-02T12:17:56.898Z,10.51
2023-03-02T12:19:30.195Z,10.56
2023-03-02T12:21:03.203Z,10.56
2023-03-02T12:22:35.696Z,10.58
2023-03-02T12:24:23.023Z,10.62
2023-03-02T12:26:02.821Z,10.73
2023-03-02T12:27:36.978Z,10.82
2023-03-02T12:29:22.937Z,10.78
2023-03-02T12:31:02.961Z,10.80
2023-03-02T12:32:36.108Z,10.86
2023-03-02T12:34:20.905Z,11.00
2023-03-02T12:36:03.096Z,10.97
2023-03-02T12:37:42.840Z,11.00
2023-03-02T12:39:22.650Z,11.04
2023-03-02T12:41:03.736Z,11.11
2023-03-02T12:42:44.064Z,11.11
2023-03-02T12:44:22.214Z,11.15
2023-03-02T12:46:04.477Z,11.15
2023-03-02T12:47:38.634Z,11.16
2023-03-02T12:49:30.883Z,11.25
2023-03-02T12:51:03.314Z,11.41
2023-03-02T12:52:35.953Z,11.57
2023-03-02T12:54:12.154Z,11.77
2023-03-02T12:55:43.880Z,12.15
2023-03-02T12:57:16.737Z,12.58
2023-03-02T12:58:49.206Z,13.06
2023-03-02T13:00:22.378Z,13.49
2023-03-02T13:02:04.217Z,13.95
2023-03-02T13:03:45.463Z,14.36
2023-03-02T13:05:20.260Z,14.48
2023-03-02T13:06:52.815Z,14.62
2023-03-02T13:08:27.606Z,14.50
2023-03-02T13:09:59.372Z,14.49
2023-03-02T13:11:32.896Z,14.42
2023-03-02T13:13:14.136Z,14.40
2023-03-02T13:14:47.417Z,14.54
2023-03-02T13:16:20.699Z,14.60
2023-03-02T13:17:54.942Z,14.65
2023-03-02T13:19:27.374Z,14.71
2023-03-02T13:21:01.171Z,14.76
2023-03-02T13:22:32.986Z,14.88
2023-03-02T13:24:20.220Z,14.82
2023-03-02T13:25:53.046Z,14.81
2023-03-02T13:27:25.154Z,14.86
2023-03-02T13:29:01.622Z,14.90
2023-03-02T13:30:34.326Z,15.05
2023-03-02T13:32:20.246Z,15.26
2023-03-02T13:33:53.208Z,15.46
2023-03-02T13:35:26.614Z,15.59
2023-03-02T13:36:59.778Z,15.47
2023-03-02T13:38:36.365Z,15.36
2023-03-02T13:40:34.180Z,15.42
2023-03-02T13:42:24.853Z,16.03
2023-03-02T13:43:57.110Z,16.79
2023-03-02T13:45:29.875Z,17.36
2023-03-02T13:47:01.740Z,18.01
2023-03-02T13:48:33.518Z,18.55
2023-03-02T13:50:08.683Z,18.86
2023-03-02T13:51:42.711Z,19.28
2023-03-02T13:53:14.308Z,19.88
2023-03-02T13:54:47.156Z,20.40
2023-03-02T13:56:19.091Z,20.83
2023-03-02T13:57:52.786Z,21.24
2023-03-02T13:59:25.782Z,21.57
2023-03-02T14:00:57.668Z,21.94
2023-03-02T14:02:30.818Z,21.98
2023-03-02T14:04:03.617Z,22.06
2023-03-02T14:05:35.778Z,22.09
2023-03-02T14:07:07.529Z,22.01
2023-03-02T14:08:39.468Z,21.87
2023-03-02T14:10:13.209Z,21.82
2023-03-02T14:11:45.708Z,21.88
2023-03-02T14:13:21.541Z,22.00
2023-03-02T14:14:55.795Z,22.24
2023-03-02T14:16:28.136Z,22.43
2023-03-02T14:18:00.176Z,22.15
2023-03-02T14:19:31.742Z,21.38
2023-03-02T14:21:03.869Z,20.40
2023-03-02T14:22:36.611Z,19.55
2023-03-02T14:24:08.276Z,18.73
2023-03-02T14:25:41.340Z,18.03
2023-03-02T14:27:15.481Z,17.59
2023-03-02T14:28:53.613Z,17.20
2023-03-02T14:30:31.682Z,16.66
2023-03-02T14:32:04.511Z,16.45
2023-03-02T14:33:36.478Z,16.16
2023-03-02T14:35:11.440Z,15.90
2023-03-02T14:36:46.738Z,15.72
2023-03-02T14:38:20.604Z,15.50
2023-03-02T14:39:55.346Z,15.24
2023-03-02T14:41:27.959Z,15.01
2023-03-02T14:42:59.580Z,14.84
2023-03-02T14:44:32.581Z,14.78
2023-03-02T14:46:04.360Z,14.70
2023-03-02T14:47:35.986Z,14.67
2023-03-02T14:49:07.629Z,14.38
2023-03-02T14:50:40.618Z,14.22
2023-03-02T14:52:17.395Z,14.09
2023-03-02T14:53:51.151Z,14.07
2023-03-02T14:55:25.850Z,14.02
2023-03-02T14:56:57.582Z,13.87
2023-03-02T14:58:31.330Z,13.89
2023-03-02T15:00:05.433Z,13.84
2023-03-02T15:01:37.590Z,13.73
2023-03-02T15:03:13.282Z,13.61
2023-03-02T15:04:46.082Z,13.47
2023-03-02T15:06:24.803Z,13.39
2023-03-02T15:07:58.695Z,13.33
2023-03-02T15:09:31.718Z,13.22
2023-03-02T15:11:03.297Z,13.25
2023-03-02T15:12:34.971Z,13.24
2023-03-02T15:14:06.582Z,13.21
2023-03-02T15:15:40.392Z,13.16
2023-03-02T15:17:11.894Z,13.18
2023-03-02T15:18:43.606Z,13.17
2023-03-02T15:20:16.149Z,13.12
2023-03-02T15:21:47.768Z,13.05
2023-03-02T15:23:19.525Z,13.06
2023-03-02T15:24:51.175Z,13.10
2023-03-02T15:26:22.763Z,13.12
2023-03-02T15:27:55.042Z,13.14
2023-03-02T15:29:26.620Z,12.99
2023-03-02T15:31:05.894Z,12.92
2023-03-02T15:32:38.018Z,12.91
2023-03-02T15:34:09.934Z,12.82
2023-03-02T15:35:41.668Z,12.77
2023-03-02T15:37:13.282Z,12.72
2023-03-02T15:38:48.942Z,12.74
2023-03-02T15:40:20.848Z,12.75
2023-03-02T15:41:53.806Z,12.74
2023-03-02T15:43:25.451Z,12.65
2023-03-02T15:44:57.025Z,12.60
2023-03-02T15:46:31.456Z,12.57
2023-03-02T15:48:03.149Z,12.61
2023-03-02T15:49:34.739Z,12.61
2023-03-02T15:51:07.696Z,12.65
2023-03-02T15:52:42.018Z,12.69
2023-03-02T15:54:13.725Z,12.67
2023-03-02T15:55:45.772Z,12.64
2023-03-02T15:57:17.704Z,12.57
2023-03-02T15:58:50.116Z,12.52
2023-03-02T16:00:22.726Z,12.48
2023-03-02T16:02:15.146Z,12.42
2023-03-02T16:03:46.833Z,12.41
2023-03-02T16:05:18.431Z,12.44
2023-03-02T16:06:50.068Z,12.42
2023-03-02T16:08:21.640Z,12.39
2023-03-02T16:09:53.221Z,12.39
2023-03-02T16:11:24.843Z,12.32
2023-03-02T16:12:56.517Z,12.24
2023-03-02T16:14:28.106Z,12.16
2023-03-02T16:16:01.328Z,12.12
2023-03-02T16:17:34.300Z,12.03
2023-03-02T16:19:05.890Z,11.98
2023-03-02T16:20:38.350Z,11.92
2023-03-02T16:22:10.277Z,11.91
2023-03-02T16:23:42.170Z,11.90
2023-03-02T16:25:13.753Z,11.84
2023-03-02T16:26:45.634Z,11.88
2023-03-02T16:28:18.584Z,11.90
2023-03-02T16:29:52.569Z,11.89
2023-03-02T16:31:28.037Z,11.87
2023-03-02T16:33:02.882Z,11.88
2023-03-02T16:34:34.491Z,11.84
2023-03-02T16:36:06.933Z,11.82
2023-03-02T16:37:39.407Z,11.82
2023-03-02T16:39:11.576Z,11.69
2023-03-02T16:40:43.209Z,11.61
2023-03-02T16:42:15.013Z,11.50
2023-03-02T16:43:48.180Z,11.47
2023-03-02T16:45:20.220Z,11.40
2023-03-02T16:46:52.012Z,11.39
2023-03-02T16:48:24.974Z,11.33
2023-03-02T16:49:57.817Z,11.35
2023-03-02T16:51:29.526Z,11.37
2023-03-02T16:53:01.158Z,11.36
2023-03-02T16:54:32.780Z,11.30
2023-03-02T16:56:04.597Z,11.22
2023-03-02T16:57:36.486Z,11.14
2023-03-02T16:59:08.095Z,11.17
2023-03-02T17:00:40.011Z,11.16
2023-03-02T17:02:11.676Z,11.15
2023-03-02T17:03:44.966Z,11.13
2023-03-02T17:05:19.325Z,11.10
2023-03-02T17:07:00.565Z,11.09
2023-03-02T17:08:34.119Z,11.11
2023-03-02T17:10:06.802Z,11.04
2023-03-02T17:11:45.825Z,10.96
2023-03-02T17:13:17.360Z,10.89
2023-03-02T17:14:49.067Z,10.84
2023-03-02T17:16:20.936Z,10.83
2023-03-02T17:17:53.222Z,10.77
2023-03-02T17:19:30.067Z,10.74
2023-03-02T17:21:03.264Z,10.67
2023-03-02T17:22:34.890Z,10.61
2023-03-02T17:24:07.334Z,10.54
2023-03-02T17:25:39.276Z,10.50
2023-03-02T17:27:24.150Z,10.51
2023-03-02T17:28:56.315Z,10.56
2023-03-02T17:30:27.916Z,10.57
2023-03-02T17:31:59.618Z,10.55
2023-03-02T17:33:32.145Z,10.55
2023-03-02T17:35:07.885Z,10.47
2023-03-02T17:36:39.848Z,10.42
2023-03-02T17:38:13.151Z,10.44
2023-03-02T17:39:45.266Z,10.37
2023-03-02T17:41:17.094Z,10.26
2023-03-02T17:42:48.752Z,10.24
2023-03-02T17:44:20.539Z,10.19
2023-03-02T17:45:52.667Z,10.11
2023-03-02T17:47:24.526Z,10.10
2023-03-02T17:48:56.977Z,10.07
2023-03-02T17:50:32.793Z,10.05
2023-03-02T17:52:06.036Z,10.05
2023-03-02T17:53:38.308Z,10.03
2023-03-02T17:55:10.603Z,10.00
2023-03-02T17:56:44.471Z,9.94
2023-03-02T17:58:16.519Z,9.90
2023-03-02T17:59:48.323Z,9.92
2023-03-02T18:01:19.845Z,9.92
2023-03-02T18:02:51.881Z,9.93
2023-03-02T18:04:23.479Z,9.95
2023-03-02T18:05:56.484Z,9.91
2023-03-02T18:07:28.027Z,9.85
2023-03-02T18:08:59.646Z,9.82
2023-03-02T18:10:31.243Z,9.83
2023-03-02T18:12:03.368Z,9.80
2023-03-02T18:13:35.259Z,9.78
2023-03-02T18:15:07.796Z,9.76
2023-03-02T18:16:39.435Z,9.73
2023-03-02T18:18:12.487Z,9.63
2023-03-02T18:19:45.484Z,9.58
2023-03-02T18:21:18.585Z,9.55
2023-03-02T18:22:50.651Z,9.55
2023-03-02T18:24:22.255Z,9.57
2023-03-02T18:25:53.858Z,9.55
2023-03-02T18:27:26.890Z,9.55
2023-03-02T18:28:58.504Z,9.58
2023-03-02T18:30:30.067Z,9.56
2023-03-02T18:32:02.538Z,9.54
2023-03-02T18:33:34.496Z,9.52
2023-03-02T18:35:06.334Z,9.53
2023-03-02T18:36:39.470Z,9.41
2023-03-02T18:38:11.113Z,9.36
2023-03-02T18:39:46.159Z,9.37
2023-03-02T18:41:18.067Z,9.35
2023-03-02T18:42:50.434Z,9.36
2023-03-02T18:44:27.725Z,9.39
2023-03-02T18:45:59.399Z,9.34
2023-03-02T18:47:34.056Z,9.32
2023-03-02T18:49:05.659Z,9.30
2023-03-02T18:50:38.147Z,9.29
2023-03-02T18:52:16.531Z,9.29
2023-03-02T18:53:49.263Z,9.27
2023-03-02T18:55:22.341Z,9.19
2023-03-02T18:56:53.882Z,9.14
2023-03-02T18:58:25.641Z,9.08
2023-03-02T18:59:57.309Z,9.00
2023-03-02T19:01:30.340Z,8.94
2023-03-02T19:03:02.226Z,8.86
2023-03-02T19:04:34.341Z,8.79
2023-03-02T19:06:07.361Z,8.76
2023-03-02T19:07:40.430Z,8.81
2023-03-02T19:09:12.078Z,8.78
2023-03-02T19:10:45.063Z,8.74
2023-03-02T19:12:18.493Z,8.73
2023-03-02T19:13:50.076Z,8.63
2023-03-02T19:15:21.918Z,8.65
2023-03-02T19:16:53.570Z,8.58
2023-03-02T19:18:25.221Z,8.57
2023-03-02T19:19:57.502Z,8.52
2023-03-02T19:21:29.201Z,8.55
2023-03-02T19:23:03.101Z,8.46
2023-03-02T19:24:35.274Z,8.44
2023-03-02T19:26:06.994Z,8.43
2023-03-02T19:27:39.205Z,8.34
2023-03-02T19:29:10.845Z,8.31
2023-03-02T19:30:42.770Z,8.26
2023-03-02T19:32:17.030Z,8.22
2023-03-02T19:33:49.054Z,8.22
2023-03-02T19:35:23.253Z,8.23
2023-03-02T19:36:55.345Z,8.24
2023-03-02T19:38:29.368Z,8.20
2023-03-02T19:40:01.179Z,8.16
2023-03-02T19:41:37.555Z,8.12
2023-03-02T19:43:09.247Z,8.12
2023-03-02T19:44:41.016Z,8.13
2023-03-02T19:46:15.292Z,8.13
2023-03-02T19:47:47.599Z,8.06
2023-03-02T19:49:19.470Z,8.08
2023-03-02T19:50:52.853Z,8.00
2023-03-02T19:52:25.493Z,7.99
2023-03-02T19:53:58.561Z,7.96
2023-03-02T19:55:30.190Z,8.00
2023-03-02T19:57:06.073Z,7.98
2023-03-02T19:58:46.537Z,7.97
2023-03-02T20:00:20.489Z,7.96
2023-03-02T20:01:52.866Z,7.92
2023-03-02T20:03:24.645Z,7.91
2023-03-02T20:04:58.858Z,7.84
2023-03-02T20:06:31.402Z,7.82
2023-03-02T20:08:04.345Z,7.82
2023-03-02T20:09:37.287Z,7.74
2023-03-02T20:11:09.329Z,7.73
2023-03-02T20:12:40.885Z,7.68
2023-03-02T20:14:16.807Z,7.63
2023-03-02T20:15:55.937Z,7.62
2023-03-02T20:17:27.808Z,7.64
2023-03-02T20:19:01.956Z,7.56
2023-03-02T20:20:33.629Z,7.57
2023-03-02T20:22:09.811Z,7.58
2023-03-02T20:23:41.695Z,7.63
2023-03-02T20:25:14.830Z,7.65
2023-03-02T20:26:46.871Z,7.66
2023-03-02T20:28:21.157Z,7.66
2023-03-02T20:29:52.747Z,7.70
2023-03-02T20:31:25.164Z,7.69
2023-03-02T20:32:57.304Z,7.64